• Join FlightAware (Why Join?)
  • Login
  • US Flag 
Gobble Gobble! 
05:59AM EST


 

Airport Tracker/Info


-or-


 

Live Flight TrackerFlight Track Log ✈ DAL1117 ✈ 08-Apr-2013 ✈ KDTW - KLAS

Flight Track Log - Related Links

Times and Time Zones

All times are in EDT time to prevent confusion due to time zone crossing. See the DAL1117 flight status page for this flight to view local times or setup timezone preferences in your user account.

Time Position Orientation Groundspeed Altitude Reporting Facility
EDT Latitude Longitude Course Direction KTS MPH feet Rate Location/Type
09:42PM 42.1994 -83.3608 215° Southwest 154 177 1,500  Level Cleveland Center
09:43PM 42.1908 -83.3689 215° Southwest 150 173 2,300 1,620 Climbing Cleveland Center
09:43PM 42.1722 -83.3892 219° Southwest 188 216 2,900 1,140 Climbing FAA TRACON SMA TRACON (SMA)
09:43PM 42.1589 -83.4036 219° Southwest 215 247 3,300 1,620 Climbing FAA TRACON SMA TRACON (SMA)
09:44PM 42.1414 -83.4239 221° Southwest 238 274 4,000 2,760 Climbing FAA TRACON SMA TRACON (SMA)
09:44PM 42.1247 -83.4433 221° Southwest 243 280 5,200 3,840 Climbing FAA TRACON SMA TRACON (SMA)
09:44PM 42.1111 -83.4681 233° Southwest 227 261 6,500 3,420 Climbing FAA TRACON SMA TRACON (SMA)
09:45PM 42.1136 -83.4975 277° West 230 265 7,500 3,000 Climbing FAA TRACON SMA TRACON (SMA)
09:45PM 42.1236 -83.5203 301° West 233 268 8,500 2,820 Climbing FAA TRACON SMA TRACON (SMA)
09:45PM 42.1358 -83.5453 303° West 239 275 9,400 2,820 Climbing FAA TRACON SMA TRACON (SMA)
09:46PM 42.1472 -83.5722 300° West 242 278 10,400 2,100 Climbing FAA TRACON SMA TRACON (SMA)
09:46PM 42.1600 -83.5997 302° West 268 308 10,800 1,140 Climbing FAA TRACON SMA TRACON (SMA)
09:46PM 42.1747 -83.6328 301° West 287 330 11,200 1,200 Climbing FAA TRACON SMA TRACON (SMA)
09:47PM 42.1886 -83.6631 302° West 306 352 11,600 1,620 Climbing FAA TRACON SMA TRACON (SMA)
09:47PM 42.2014 -83.6922 301° West 318 366 12,300 1,920 Climbing FAA TRACON SMA TRACON (SMA)
09:47PM 42.2189 -83.7292 303° West 319 367 12,900 1,020 Climbing FAA TRACON SMA TRACON (SMA)
09:48PM 42.2353 -83.7658 301° West 318 366 13,000 120 Climbing FAA TRACON SMA TRACON (SMA)
09:48PM 42.2483 -83.7947 301° West 318 366 13,000 120 Level FAA TRACON SMA TRACON (SMA)
09:48PM 42.2642 -83.8292 302° West 321 369 13,100 1,500 Climbing FAA TRACON SMA TRACON (SMA)
09:49PM 42.2822 -83.8694 301° West 324 373 14,000 3,120 Climbing FAA TRACON SMA TRACON (SMA)
09:49PM 42.2967 -83.9017 301° West 323 372 15,200 3,420 Climbing FAA TRACON SMA TRACON (SMA)
09:49PM 42.3108 -83.9328 302° West 318 366 16,300 2,820 Climbing FAA TRACON SMA TRACON (SMA)
09:50PM 42.3281 -83.9706 302° West 310 357 17,300 2,700 Climbing FAA TRACON SMA TRACON (SMA)
09:50PM 42.3453 -84.0094 301° West 312 359 18,200 2,220 Climbing FAA TRACON SMA TRACON (SMA)
09:50PM 42.3561 -84.0331 302° West 315 362 18,700 2,700 Climbing FAA TRACON SMA TRACON (SMA)
09:51PM 42.3742 -84.0731 301° West 319 367 19,900 3,180 Climbing FAA TRACON SMA TRACON (SMA)
09:51PM 42.3858 -84.1025 298° West 316 364 20,800 2,460 Climbing FAA TRACON SMA TRACON (SMA)
09:51PM 42.4011 -84.1344 303° West 307 353 21,600 2,100 Climbing FAA TRACON SMA TRACON (SMA)
09:52PM 42.4147 -84.1644 302° West 306 352 22,200 1,800 Climbing FAA TRACON SMA TRACON (SMA)
09:52PM 42.4264 -84.2042 292° West 308 354 22,800 1,800 Climbing FAA TRACON SMA TRACON (SMA)
09:52PM 42.4289 -84.2411 275° West 313 360 23,400 1,620 Climbing FAA TRACON SMA TRACON (SMA)
09:53PM 42.4306 -84.2861 273° West 314 361 23,900 1,020 Climbing FAA TRACON SMA TRACON (SMA)
09:53PM 42.4303 -84.2953 268° West 314 361 24,100 1,380 Climbing FAA TRACON SMA TRACON (SMA)
09:55PM 42.4358 -84.5011 272° West 324 373 26,500 1,020 Climbing Chicago Center
09:56PM 42.4389 -84.6322 272° West 346 398 26,800 600 Climbing Chicago Center
09:57PM 42.4422 -84.7722 272° West 369 425 27,800 960 Climbing Chicago Center
09:58PM 42.4456 -84.9150 272° West 378 435 28,800 1,260 Climbing Chicago Center
09:59PM 42.4492 -85.0575 272° West 379 436 30,400 1,380 Climbing Chicago Center
10:00PM 42.4519 -85.1936 272° West 367 422 31,700 1,140 Climbing Chicago Center
10:01PM 42.4550 -85.3578 272° West 365 420 32,800 1,320 Climbing Chicago Center
10:02PM 42.4567 -85.4917 271° West 359 413 34,500 1,140 Climbing Chicago Center
10:03PM 42.4589 -85.6206 271° West 347 399 35,200 660 Climbing Chicago Center
10:04PM 42.4611 -85.7508 271° West 345 397 35,900 360 Climbing Chicago Center
10:05PM 42.4633 -85.8831 271° West 350 403 36,000  Climbing Chicago Center
10:06PM 42.4647 -86.0156 271° West 351 404 36,000  Level Chicago Center
10:07PM 42.4597 -86.1500 267° West 355 409 36,000  Level Chicago Center
10:08PM 42.4431 -86.2825 260° West 358 412 36,000  Level Chicago Center
10:09PM 42.4269 -86.4156 261° West 358 412 36,000  Level Chicago Center
10:10PM 42.4092 -86.5483 260° West 357 411 36,000  Level Chicago Center
10:11PM 42.3919 -86.6967 261° West 362 417 36,000  Level Chicago Center
10:12PM 42.3750 -86.8297 260° West 362 417 36,000  Level Chicago Center
10:13PM 42.3575 -86.9625 260° West 363 418 36,000  Level Chicago Center
10:14PM 42.3344 -87.1189 259° West 357 411 36,000  Level Chicago Center
10:15PM 42.3169 -87.2528 260° West 362 417 36,000  Level Chicago Center
10:16PM 42.2997 -87.3867 260° West 366 421 36,000  Level Chicago Center
10:17PM 42.2806 -87.5239 259° West 372 428 36,000  Level Chicago Center
10:18PM 42.2622 -87.6578 260° West 368 423 36,000  Level Chicago Center
10:19PM 42.2431 -87.7944 259° West 373 429 36,000  Level Chicago Center
10:20PM 42.2247 -87.9286 260° West 370 426 36,000  Level Chicago Center
10:21PM 42.1972 -88.0878 257° West 368 423 36,000  Level Chicago Center
10:22PM 42.1747 -88.2181 257° West 362 417 36,000  Level Chicago Center
10:23PM 42.1519 -88.3436 256° West 351 404 36,000  Level Chicago Center
10:24PM 42.1292 -88.4717 257° West 354 407 36,000  Level Chicago Center
10:25PM 42.1061 -88.6008 257° West 356 410 36,000  Level Chicago Center
10:26PM 42.0825 -88.7297 256° West 358 412 36,000  Level Chicago Center
10:27PM 42.0592 -88.8592 256° West 360 414 36,000  Level Chicago Center
10:28PM 42.0297 -89.0144 256° West 361 415 36,000  Level Chicago Center
10:29PM 42.0067 -89.1442 257° West 362 417 36,000  Level Chicago Center
10:31PM 41.9828 -89.2750 256° West 363 418 36,000  Level Chicago Center
10:32PM 41.9581 -89.4058 256° West 362 417 36,000  Level Chicago Center
10:33PM 41.9328 -89.5375 256° West 367 422 36,000  Level Chicago Center
10:34PM 41.9086 -89.6664 256° West 360 414 36,000  Level Chicago Center
10:35PM 41.8836 -89.7953 255° West 360 414 36,000  Level Chicago Center
10:36PM 41.8589 -89.9244 256° West 359 413 36,000  Level Chicago Center
10:37PM 41.8306 -90.0789 256° West 357 411 36,000  Level Chicago Center
10:38PM 41.8058 -90.2078 256° West 359 413 36,000  Level Chicago Center
10:39PM 41.7808 -90.3283 254° West 366 421 36,000  Level Chicago Center
10:40PM 41.7550 -90.4581 255° West 363 418 36,000  Level Chicago Center
10:41PM 41.7289 -90.5878 255° West 363 418 36,000  Level Chicago Center
10:42PM 41.7017 -90.7261 255° West 362 417 36,000  Level Chicago Center
10:43PM 41.6750 -90.8550 255° West 362 417 36,000  Level Chicago Center
10:44PM 41.6500 -90.9833 255° West 360 414 36,000  Level Chicago Center
10:45PM 41.6181 -91.1378 255° West 360 414 36,000  Level Chicago Center
10:46PM 41.5919 -91.2669 255° West 360 414 36,000  Level Chicago Center
10:47PM 41.5644 -91.3950 254° West 361 415 36,000  Level Chicago Center
10:48PM 41.5383 -91.5250 255° West 364 419 36,000  Level Chicago Center
10:49PM 41.5156 -91.6542 257° West 362 417 36,000  Level Chicago Center
10:50PM 41.5033 -91.7867 263° West 362 417 36,000  Level Chicago Center
10:51PM 41.4867 -91.9192 261° West 364 419 36,000  Level Chicago Center
10:52PM 41.4569 -92.0483 253° West 367 422 36,000  Level Chicago Center
10:53PM 41.4208 -92.2056 253° West 372 428 36,000  Level Chicago Center
10:54PM 41.3914 -92.3369 253° West 373 429 36,000  Level Chicago Center
10:55PM 41.3644 -92.4531 253° West 370 426 36,000  Level Chicago Center
10:56PM 41.3350 -92.5828 253° West 371 427 36,000  Level Chicago Center
10:57PM 41.3044 -92.7142 253° West 372 428 36,000  Level Minneapolis Center
10:58PM 41.2747 -92.8431 253° West 370 426 36,000  Level Minneapolis Center
10:59PM 41.2442 -92.9736 253° West 373 429 36,000  Level Minneapolis Center
11:00PM 41.2136 -93.1042 253° West 374 430 36,000  Level Minneapolis Center
11:01PM 41.1819 -93.2358 252° West 377 434 36,000  Level Minneapolis Center
11:02PM 41.1506 -93.3675 252° West 379 436 36,000  Level Minneapolis Center
11:03PM 41.1194 -93.4964 252° West 374 430 36,000  Level Minneapolis Center
11:04PM 41.0886 -93.6283 253° West 376 433 36,000  Level Minneapolis Center
11:05PM 41.0489 -93.7875 252° West 381 438 36,000  Level Minneapolis Center
11:06PM 41.0161 -93.9200 252° West 382 440 36,000  Level Minneapolis Center
11:07PM 40.9833 -94.0531 252° West 382 440 36,000  Level Minneapolis Center
11:08PM 40.9511 -94.1839 252° West 380 437 36,000  Level Minneapolis Center
11:09PM 40.9175 -94.3169 252° West 382 440 36,000  Level Minneapolis Center
11:10PM 40.8828 -94.4494 251° West 384 442 36,000  Level Minneapolis Center
11:11PM 40.8511 -94.5792 252° West 379 436 36,000  Level Minneapolis Center
11:12PM 40.8192 -94.7108 252° West 376 433 36,000  Level Minneapolis Center
11:13PM 40.7786 -94.8653 251° West 373 429 36,000  Level Minneapolis Center
11:14PM 40.7467 -94.9944 252° West 370 426 36,000  Level Minneapolis Center
11:15PM 40.7131 -95.1242 251° West 372 428 36,000  Level Minneapolis Center
11:16PM 40.6806 -95.2539 252° West 373 429 36,000  Level Minneapolis Center
11:17PM 40.6472 -95.3836 251° West 372 428 36,000  Level Minneapolis Center
11:18PM 40.6122 -95.5153 251° West 377 434 36,000  Level Minneapolis Center
11:19PM 40.5783 -95.6439 251° West 373 429 36,000  Level Minneapolis Center
11:20PM 40.5447 -95.7731 251° West 372 428 36,000  Level Minneapolis Center
11:21PM 40.5106 -95.9022 251° West 372 428 36,000  Level Minneapolis Center
11:22PM 40.4758 -96.0283 250° West 368 423 36,000  Level Minneapolis Center
11:23PM 40.4417 -96.1567 251° West 370 426 36,000  Level Minneapolis Center
11:24PM 40.4083 -96.2842 251° West 369 425 36,000  Level Minneapolis Center
11:25PM 40.3728 -96.4125 250° West 371 427 36,000  Level Minneapolis Center
11:26PM 40.3383 -96.5392 250° West 371 427 36,000  Level Minneapolis Center
11:27PM 40.3042 -96.6650 250° West 367 422 36,000  Level Minneapolis Center
11:28PM 40.2625 -96.8139 250° West 364 419 36,000  Level Minneapolis Center
11:29PM 40.2294 -96.9394 251° West 364 419 36,000  Level Minneapolis Center
11:30PM 40.1950 -97.0622 250° West 361 415 36,000  Level Minneapolis Center
11:31PM 40.1611 -97.1850 250° West 360 414 36,000  Level Minneapolis Center
11:32PM 40.1256 -97.3075 249° West 359 413 36,000  Level Minneapolis Center
11:33PM 40.0928 -97.4258 250° West 364 419 36,000  Level Minneapolis Center
11:34PM 40.0564 -97.5519 249° West 368 423 36,000  Level Minneapolis Center
11:36PM 40.0208 -97.6783 250° West 369 425 36,000  Level Minneapolis Center
11:37PM 39.9853 -97.8017 249° West 367 422 36,000  Level Minneapolis Center
11:38PM 39.9497 -97.9256 250° West 364 419 36,000  Level Minneapolis Center
11:39PM 39.9142 -98.0500 250° West 365 420 36,000  Level Minneapolis Center
11:40PM 39.8725 -98.1964 250° West 361 415 36,000  Level Minneapolis Center
11:41PM 39.8353 -98.3214 249° West 366 421 36,000  Level Minneapolis Center
11:42PM 39.7989 -98.4447 249° West 366 421 36,000  Level Minneapolis Center
11:43PM 39.7617 -98.5694 249° West 367 422 36,000  Level Minneapolis Center
11:44PM 39.7256 -98.6967 250° West 371 427 36,000  Level Minneapolis Center
11:45PM 39.6881 -98.8203 249° West 370 426 36,000  Level Minneapolis Center
11:45PM 39.6664 -98.8958 250° West 369 425 36,000  Level Denver Center
11:46PM 39.6283 -99.0214 249° West 371 427 36,000  Level Denver Center
11:47PM 39.5903 -99.1461 248° West 372 428 36,000  Level Denver Center
11:48PM 39.5539 -99.2722 250° West 373 429 36,000  Level Denver Center
11:49PM 39.5156 -99.3953 248° West 370 426 36,000  Level Denver Center
11:50PM 39.4781 -99.5175 248° West 366 421 36,000  Level Denver Center
11:51PM 39.4400 -99.6417 248° West 367 422 36,000  Level Denver Center
11:52PM 39.3967 -99.7814 248° West 373 429 36,000  Level Denver Center
11:53PM 39.3592 -99.9033 248° West 380 437 36,000  Level Denver Center
11:54PM 39.3219 -100.0228 248° West 376 433 36,000  Level Denver Center
11:55PM 39.2778 -100.1650 248° West 381 438 36,000  Level Denver Center
11:56PM 39.2531 -100.2892 256° West 376 433 36,000  Level Denver Center
11:57PM 39.2422 -100.4411 265° West 379 436 36,000  Level Denver Center
11:59PM 39.2319 -100.5728 264° West 383 441 36,000  Level Denver Center
12:00AM 39.2200 -100.7222 264° West 378 435 36,000  Level Denver Center
12:01AM 39.2094 -100.8531 264° West 382 440 36,000  Level Denver Center
12:02AM 39.1986 -100.9825 264° West 381 438 36,000  Level Denver Center
12:03AM 39.1853 -101.1386 264° West 390 449 36,000  Level Denver Center
12:04AM 39.1742 -101.2689 264° West 385 443 36,000  Level Denver Center
12:05AM 39.1606 -101.4206 263° West 381 438 36,000  Level Denver Center
12:06AM 39.1489 -101.5517 263° West 384 442 36,000  Level Denver Center
12:07AM 39.1378 -101.6833 264° West 385 443 36,000  Level Denver Center
12:08AM 39.1258 -101.8269 264° West 383 441 36,000  Level Denver Center
12:09AM 39.1133 -101.9558 263° West 381 438 36,000  Level Denver Center
12:10AM 39.1000 -102.1097 264° West 386 444 36,000  Level Denver Center
12:11AM 39.0869 -102.2417 263° West 390 449 36,000  Level Denver Center
12:12AM 39.0725 -102.3953 263° West 389 448 36,000  Level Denver Center
12:13AM 39.0597 -102.5269 263° West 389 448 36,000  Level Denver Center
12:14AM 39.0461 -102.6578 262° West 386 444 36,000  Level Denver Center
12:15AM 39.0328 -102.8064 263° West 386 444 36,000  Level Denver Center
12:16AM 39.0192 -102.9442 263° West 385 443 36,000  Level Denver Center
12:17AM 39.0050 -103.0833 263° West 390 449 36,000  Level Denver Center
12:18AM 38.9914 -103.2228 263° West 388 447 36,000  Level Denver Center
12:19AM 38.9767 -103.3625 262° West 390 449 36,000  Level Denver Center
12:20AM 38.9617 -103.5033 262° West 393 452 36,000  Level Denver Center
12:21AM 38.9461 -103.6450 262° West 397 457 36,000  Level Denver Center
12:22AM 38.9322 -103.7847 263° West 393 452 36,000  Level Denver Center
12:23AM 38.9169 -103.9242 262° West 392 451 36,000  Level Denver Center
12:24AM 38.9022 -104.0631 262° West 390 449 36,000  Level Denver Center
12:25AM 38.8869 -104.2000 262° West 385 443 36,000  Level Denver Center
12:26AM 38.8714 -104.3381 262° West 386 444 36,000  Level Denver Center
12:27AM 38.8556 -104.4769 262° West 389 448 36,000  Level Denver Center
12:28AM 38.8397 -104.6175 262° West 392 451 36,000  Level Denver Center
12:29AM 38.8233 -104.7558 261° West 388 447 36,000  Level Denver Center
12:30AM 38.8067 -104.8967 261° West 394 453 36,000  Level Denver Center
12:31AM 38.7900 -105.0389 261° West 397 457 36,000  Level Denver Center
12:32AM 38.7733 -105.1808 261° West 398 458 36,000  Level Denver Center
12:33AM 38.7567 -105.3222 261° West 398 458 36,000  Level Denver Center
12:34AM 38.7389 -105.4650 261° West 403 464 36,000  Level Denver Center
12:35AM 38.7214 -105.6042 261° West 395 455 36,000  Level Denver Center
12:36AM 38.7044 -105.7458 261° West 397 457 36,000  Level Denver Center
12:37AM 38.6864 -105.8875 261° West 400 460 36,000  Level Denver Center
12:38AM 38.6681 -106.0267 260° West 395 455 36,000  Level Denver Center
12:39AM 38.6489 -106.1769 261° West 398 458 36,000  Level Denver Center
12:40AM 38.6303 -106.3242 261° West 395 455 36,000  Level Denver Center
12:41AM 38.6125 -106.4628 261° West 394 453 36,000  Level Denver Center
12:42AM 38.5931 -106.6022 260° West 395 455 36,000  Level Denver Center
12:43AM 38.5786 -106.7125 261° West 392 451 36,000  Level Denver Center
12:44AM 38.5561 -106.8806 260° West 397 457 36,000  Level Denver Center
12:45AM 38.5367 -107.0214 260° West 400 460 36,000  Level Denver Center
12:46AM 38.5175 -107.1622 260° West 400 460 36,000  Level Denver Center
12:47AM 38.4978 -107.3078 260° West 400 460 36,100  Climbing Denver Center
12:48AM 38.4797 -107.4372 260° West 390 449 36,000 -60 Descending Denver Center
12:49AM 38.4611 -107.5678 260° West 391 450 36,000 -60 Level Denver Center
12:50AM 38.4394 -107.7172 260° West 386 444 35,900  Descending Denver Center
12:51AM 38.4211 -107.8458 260° West 384 442 36,000  Climbing Denver Center
12:52AM 38.4019 -107.9769 259° West 390 449 36,000  Level Denver Center
12:53AM 38.3803 -108.1314 260° West 395 455 36,000  Level Denver Center
12:54AM 38.3611 -108.2664 260° West 402 463 36,000  Level Denver Center
12:55AM 38.3403 -108.4022 259° West 406 467 36,000  Level Denver Center
12:56AM 38.3161 -108.5628 259° West 411 473 36,000  Level Denver Center
12:57AM 38.2953 -108.7008 259° West 414 476 36,000  Level Denver Center
12:58AM 38.2753 -108.8400 260° West 416 479 36,000  Level Denver Center
01:00AM 38.2492 -109.0019 258° West 418 481 36,000  Level Denver Center
01:01AM 38.2275 -109.1439 259° West 422 486 36,000  Level Denver Center
01:02AM 38.2058 -109.2847 259° West 423 487 36,100  Climbing Denver Center
01:03AM 38.1778 -109.4492 258° West 424 488 36,000 -60 Descending Denver Center
01:04AM 38.1564 -109.5906 259° West 424 488 36,000  Level Denver Center
01:05AM 38.1342 -109.7308 259° West 423 487 36,000  Level Denver Center
01:06AM 38.1117 -109.8689 258° West 419 482 36,000  Level Denver Center
01:07AM 38.0853 -110.0308 258° West 419 482 36,000  Level Denver Center
01:08AM 38.0622 -110.1692 258° West 419 482 36,000  Level Denver Center
01:09AM 38.0392 -110.3097 258° West 424 488 36,000  Level Denver Center
01:10AM 38.0128 -110.4717 258° West 419 482 36,000  Level Denver Center
01:11AM 37.9886 -110.6089 257° West 423 487 36,000  Level Denver Center
01:12AM 37.9644 -110.7558 258° West 427 491 36,000  Level Denver Center
01:13AM 37.9392 -110.9025 258° West 428 493 36,000  Level Denver Center
01:14AM 37.9144 -111.0486 258° West 427 491 36,000  Level Denver Center
01:15AM 37.8889 -111.1942 258° West 425 489 36,000  Level Denver Center
01:16AM 37.8578 -111.3692 257° West 425 489 36,000  Level Salt Lake Center
01:17AM 37.8033 -111.5008 242° Southwest 427 491 36,000  Level Salt Lake Center
01:18AM 37.7453 -111.6314 241° Southwest 426 490 36,000  Level Salt Lake Center
01:19AM 37.6842 -111.7603 239° Southwest 427 491 36,000  Level Salt Lake Center
01:20AM 37.6242 -111.8900 240° Southwest 428 493 36,000  Level Salt Lake Center
01:21AM 37.5653 -112.0189 240° Southwest 424 488 36,000  Level Salt Lake Center
01:22AM 37.5047 -112.1481 239° Southwest 426 490 36,000 -480 Level Salt Lake Center
01:23AM 37.4444 -112.2792 240° Southwest 429 494 35,100 -1,200 Descending Salt Lake Center
01:24AM 37.3836 -112.4072 239° Southwest 426 490 33,700 -1,440 Descending Salt Lake Center
01:25AM 37.3214 -112.5386 239° Southwest 431 496 32,200 -1,500 Descending Salt Lake Center
01:26AM 37.2586 -112.6689 239° Southwest 432 497 30,700 -1,140 Descending Salt Lake Center
01:27AM 37.1994 -112.7950 240° Southwest 423 487 30,000 -600 Descending Salt Lake Center
01:28AM 37.1389 -112.9203 239° Southwest 418 481 29,600 -840 Descending Salt Lake Center
01:29AM 37.0664 -113.0722 239° Southwest 420 483 28,400 -1,140 Descending Salt Lake Center
01:30AM 37.0042 -113.2008 239° Southwest 427 491 27,400 -960 Descending Salt Lake Center
01:31AM 36.9447 -113.3253 239° Southwest 422 486 26,400 -900 Descending Los Angeles Center
01:32AM 36.8869 -113.4453 239° Southwest 409 471 25,500 -960 Descending Los Angeles Center
01:33AM 36.8272 -113.5661 238° Southwest 407 468 24,500 -780 Descending Los Angeles Center
01:34AM 36.7683 -113.6847 238° Southwest 405 466 24,000 -300 Descending Los Angeles Center
01:35AM 36.7078 -113.8114 239° Southwest 420 483 24,000 -240 Level Los Angeles Center
01:36AM 36.6461 -113.9400 239° Southwest 432 497 23,600 -1,980 Descending Los Angeles Center
01:37AM 36.5725 -114.0911 239° Southwest 426 490 20,000 -3,300 Descending Los Angeles Center
01:38AM 36.5167 -114.2125 240° Southwest 410 472 16,900 -3,000 Descending Los Angeles Center
01:39AM 36.4611 -114.3350 241° Southwest 395 455 14,000 -2,580 Descending Los Angeles Center
01:40AM 36.4286 -114.4119 242° Southwest 387 445 12,600 -1,800 Descending Los Angeles Center
01:40AM 36.4086 -114.4481 235° Southwest 381 438 12,200 -840 Descending Los Angeles Center
01:41AM 36.3894 -114.4789 232° Southwest 360 414 12,000 -420 Descending Los Angeles Center
01:41AM 36.3281 -114.4992 195° South 336 387 11,800 -900 Descending Los Angeles Center
01:42AM 36.3011 -114.5303 223° Southwest 321 369 11,100 -1,800 Descending Los Angeles Center
01:42AM 36.2567 -114.5636 211° Southwest 321 369 10,000 -1,920 Descending Los Angeles Center
01:43AM 36.2286 -114.5922 219° Southwest 318 366 9,200 -1,380 Descending Los Angeles Center
01:43AM 36.1994 -114.6150 212° Southwest 318 366 8,600 -1,140 Descending Los Angeles Center
01:44AM 36.1583 -114.6561 219° Southwest 314 361 8,100 -600 Descending Los Angeles Center
01:44AM 36.1178 -114.6856 210° Southwest 307 353 8,000 -120 Descending Los Angeles Center
01:45AM 36.1000 -114.7050 221° Southwest 252 290 8,000  Level Los Angeles Center
01:45AM 36.0739 -114.7344 222° Southwest 243 280 8,000  Level Los Angeles Center
01:46AM 36.0756 -114.7611 274° West 194 223 8,000 -720 Level Los Angeles Center
01:46AM 36.0747 -114.7961 268° West 189 217 7,300 -1,020 Descending Los Angeles Center
01:47AM 36.0739 -114.8228 268° West 174 200 7,000 -900 Descending Los Angeles Center
01:47AM 36.0731 -114.8575 268° West 181 208 6,400 -1,140 Descending Los Angeles Center
01:48AM 36.0744 -114.8839 274° West 175 201 5,900 -960 Descending Los Angeles Center
01:49AM 36.0739 -114.9200 269° West 180 207 5,300 -960 Descending Los Angeles Center
01:50AM 36.0739 -114.9967 270° West 183 211 4,100 -1,080 Descending Los Angeles Center
01:51AM 36.0733 -115.0544 269° West 178 205 3,200 -840 Descending Los Angeles Center
01:52AM 36.0731 -115.0986 270° West 154 177 2,500 -600 Descending Los Angeles Center
01:53AM 36.0700 -115.1483 266° West 142 163 2,000 -540 Descending Los Angeles Center